Time;durP1;ratioP1;P1;durP2;ratioP2;P2;SDS_P1;SDS_P2;PMS_P1;PMS_P2;Temp;Humidity;BMP_temperature;BMP_pressure;BME280_temperature;BME280_humidity;BME280_pressure;Samples;Min_cycle;Max_cycle;Signal;HPM_P1;HPM_P2
2021/10/22 00:02:23;;;;;;;19.02;6.63;;;17.50;99.90;;;;;;5011931;28;20449;-74
2021/10/22 00:04:49;;;;;;;19.23;6.97;;;17.40;99.90;;;;;;5003924;28;20023;-78
2021/10/22 00:07:16;;;;;;;29.67;7.15;;;17.40;99.90;;;;;;5001399;28;20027;-78
2021/10/22 00:09:41;;;;;;;15.75;6.13;;;17.50;99.90;;;;;;4995962;28;20026;-75
2021/10/22 00:12:07;;;;;;;26.10;7.05;;;17.50;99.90;;;;;;5006557;28;20041;-73
2021/10/22 00:14:33;;;;;;;17.77;6.13;;;17.50;99.90;;;;;;5004503;28;20034;-77
2021/10/22 00:16:59;;;;;;;20.65;6.90;;;17.50;99.90;;;;;;5005811;28;20038;-78
2021/10/22 00:19:25;;;;;;;21.90;7.05;;;17.50;99.90;;;;;;5008427;28;20126;-79
2021/10/22 00:21:50;;;;;;;22.35;6.47;;;17.50;99.90;;;;;;4996850;28;20050;-77
2021/10/22 00:24:16;;;;;;;20.85;5.90;;;17.50;99.90;;;;;;5003977;28;20026;-76
2021/10/22 00:26:42;;;;;;;25.35;6.82;;;17.50;99.90;;;;;;5009488;28;20038;-77
2021/10/22 00:29:07;;;;;;;18.50;6.20;;;17.50;99.90;;;;;;4997912;28;20109;-77
2021/10/22 00:31:33;;;;;;;15.82;6.15;;;17.50;99.90;;;;;;5003958;28;20427;-76
2021/10/22 00:33:59;;;;;;;19.33;6.97;;;17.50;99.90;;;;;;5000813;28;20030;-79
2021/10/22 00:36:25;;;;;;;18.98;7.20;;;17.50;99.90;;;;;;5003979;28;20038;-77
2021/10/22 00:38:51;;;;;;;14.93;6.90;;;17.50;99.90;;;;;;4996605;28;20042;-78
2021/10/22 00:41:18;;;;;;;20.35;7.15;;;17.50;99.90;;;;;;4997307;28;20033;-78
2021/10/22 00:43:45;;;;;;;14.88;5.82;;;17.50;99.90;;;;;;5022021;28;20125;-77
2021/10/22 00:46:11;;;;;;;17.73;6.40;;;17.50;99.90;;;;;;5007065;28;20025;-77
2021/10/22 00:48:38;;;;;;;19.20;6.25;;;17.50;99.90;;;;;;5003535;28;20386;-78
2021/10/22 00:51:05;;;;;;;23.17;7.45;;;17.50;99.90;;;;;;5009531;28;20034;-77
2021/10/22 00:53:36;;;;;;;14.90;6.18;;;17.50;99.90;;;;;;5001863;28;20482;-78
2021/10/22 00:56:05;;;;;;;24.88;7.72;;;17.50;99.90;;;;;;4998555;28;20493;-79
2021/10/22 00:58:31;;;;;;;17.52;6.65;;;17.50;99.90;;;;;;5004457;28;20170;-76
2021/10/22 01:00:56;;;;;;;15.27;6.43;;;17.50;99.90;;;;;;5005567;28;20501;-76
2021/10/22 01:03:22;;;;;;;20.45;8.20;;;17.50;99.90;;;;;;5005707;28;20050;-79
2021/10/22 01:05:48;;;;;;;24.17;8.68;;;17.50;99.90;;;;;;5002883;28;20113;-78
2021/10/22 01:08:13;;;;;;;26.63;9.40;;;17.50;99.90;;;;;;4999503;28;20050;-80
2021/10/22 01:10:39;;;;;;;17.95;8.88;;;17.50;99.90;;;;;;5004356;28;20112;-78
2021/10/22 01:13:07;;;;;;;23.85;9.40;;;17.50;99.90;;;;;;5008653;28;20442;-77
2021/10/22 01:15:33;;;;;;;17.65;7.72;;;17.60;99.90;;;;;;5004379;28;20165;-78
2021/10/22 01:18:00;;;;;;;26.27;8.77;;;17.60;99.90;;;;;;5016020;28;20120;-76
2021/10/22 01:20:27;;;;;;;29.92;7.90;;;17.50;99.90;;;;;;5015772;28;20026;-74
2021/10/22 01:22:54;;;;;;;18.83;8.13;;;17.50;99.90;;;;;;5015827;28;20026;-74
2021/10/22 01:25:24;;;;;;;21.83;8.40;;;17.60;99.90;;;;;;5015946;28;20018;-79
2021/10/22 01:27:50;;;;;;;23.42;7.95;;;17.60;99.90;;;;;;5016020;28;20061;-78
2021/10/22 01:30:18;;;;;;;20.80;8.38;;;17.60;99.90;;;;;;4999141;28;20022;-75
2021/10/22 01:32:47;;;;;;;22.98;8.40;;;17.60;99.90;;;;;;5005530;28;20065;-79
2021/10/22 01:35:13;;;;;;;20.45;7.97;;;17.60;99.90;;;;;;4999935;28;20128;-78
2021/10/22 01:37:39;;;;;;;24.42;9.25;;;17.60;99.90;;;;;;5002882;28;20080;-78
2021/10/22 01:40:06;;;;;;;32.33;9.40;;;17.50;99.90;;;;;;5015622;28;20038;-78
2021/10/22 01:42:32;;;;;;;30.60;10.32;;;17.60;99.90;;;;;;5015387;28;20042;-77
2021/10/22 01:44:58;;;;;;;36.65;11.30;;;17.60;99.90;;;;;;5015463;28;20558;-78
2021/10/22 01:47:24;;;;;;;36.75;11.48;;;17.50;99.90;;;;;;5015429;28;20088;-78
2021/10/22 01:49:51;;;;;;;29.42;11.35;;;17.60;99.90;;;;;;5015939;28;20042;-74
2021/10/22 01:52:16;;;;;;;29.85;10.65;;;17.50;99.90;;;;;;5015899;28;20041;-78
2021/10/22 01:54:43;;;;;;;29.05;9.93;;;17.50;99.90;;;;;;5016002;28;20030;-79
2021/10/22 01:57:11;;;;;;;26.35;8.82;;;17.50;99.90;;;;;;5009255;28;20081;-79
2021/10/22 01:59:37;;;;;;;23.23;8.40;;;17.50;99.90;;;;;;5015505;28;20026;-74
2021/10/22 02:02:03;;;;;;;24.85;9.15;;;17.50;99.90;;;;;;5004431;28;20050;-75
2021/10/22 02:04:29;;;;;;;20.95;7.60;;;17.50;99.90;;;;;;5006560;28;20080;-77
2021/10/22 02:06:55;;;;;;;24.17;7.78;;;17.50;99.90;;;;;;5008653;28;20276;-78
2021/10/22 02:09:21;;;;;;;24.10;10.05;;;17.50;99.90;;;;;;5008482;28;20444;-78
2021/10/22 02:11:47;;;;;;;27.40;9.60;;;17.50;99.90;;;;;;5014937;28;20037;-79
2021/10/22 02:14:16;;;;;;;34.40;10.07;;;17.50;99.90;;;;;;5015106;28;20028;-77
2021/10/22 02:16:43;;;;;;;36.47;14.48;;;17.50;99.90;;;;;;5023959;28;20037;-78
2021/10/22 02:19:09;;;;;;;70.82;27.98;;;17.40;99.90;;;;;;5009063;28;20041;-78
2021/10/22 02:21:35;;;;;;;81.57;31.70;;;17.40;99.90;;;;;;5014058;28;20471;-77
2021/10/22 02:24:01;;;;;;;83.45;34.63;;;17.40;99.90;;;;;;5015331;28;20117;-79
2021/10/22 02:26:27;;;;;;;155.85;59.45;;;17.40;99.90;;;;;;5016313;28;20033;-79
2021/10/22 02:28:54;;;;;;;110.38;41.88;;;17.40;99.90;;;;;;5021273;28;20034;-79
2021/10/22 02:31:22;;;;;;;90.18;37.85;;;17.30;99.90;;;;;;5046439;28;20068;-78
2021/10/22 02:33:51;;;;;;;111.47;47.50;;;17.30;99.90;;;;;;5033370;28;20156;-78
2021/10/22 02:36:22;;;;;;;107.82;49.40;;;17.30;99.90;;;;;;5024649;28;20077;-78
2021/10/22 02:38:48;;;;;;;104.07;42.58;;;17.30;99.90;;;;;;5014242;28;20050;-78
2021/10/22 02:41:15;;;;;;;72.03;29.38;;;17.40;99.90;;;;;;5022930;28;20053;-79
2021/10/22 02:43:42;;;;;;;57.45;25.85;;;17.40;99.90;;;;;;5034497;28;20078;-78
2021/10/22 02:46:12;;;;;;;49.20;21.67;;;17.40;99.90;;;;;;5034347;28;20061;-78
2021/10/22 02:48:38;;;;;;;55.72;18.38;;;17.40;99.90;;;;;;5032994;28;20030;-77
2021/10/22 02:51:03;;;;;;;32.67;14.55;;;17.40;99.90;;;;;;5033500;28;20044;-79
2021/10/22 02:53:30;;;;;;;25.67;10.43;;;17.40;99.90;;;;;;5032442;28;20037;-79
2021/10/22 02:55:55;;;;;;;20.52;8.57;;;17.30;99.90;;;;;;5034308;28;20026;-79
2021/10/22 02:58:21;;;;;;;31.00;8.70;;;17.30;99.90;;;;;;5033167;28;20057;-77
2021/10/22 03:00:47;;;;;;;23.05;7.90;;;17.30;99.90;;;;;;5031759;28;20041;-79
2021/10/22 03:03:13;;;;;;;17.13;7.13;;;17.30;99.90;;;;;;5028095;28;20030;-76
2021/10/22 03:05:39;;;;;;;17.80;7.85;;;17.30;99.90;;;;;;5027733;28;20030;-78
2021/10/22 03:08:05;;;;;;;17.45;7.60;;;17.30;99.90;;;;;;5025222;28;20030;-74
2021/10/22 03:10:30;;;;;;;21.35;7.95;;;17.30;99.90;;;;;;5025435;28;20094;-77
2021/10/22 03:12:56;;;;;;;21.15;7.80;;;17.30;99.90;;;;;;5026021;28;20463;-76
2021/10/22 03:15:21;;;;;;;26.08;8.57;;;17.30;99.90;;;;;;5026868;28;20029;-77
2021/10/22 03:17:48;;;;;;;23.98;8.27;;;17.30;99.90;;;;;;5027594;28;20037;-77
2021/10/22 03:20:13;;;;;;;20.63;6.78;;;17.20;99.90;;;;;;5025751;28;20006;-77
2021/10/22 03:22:40;;;;;;;31.27;9.13;;;17.20;99.90;;;;;;5021853;28;20033;-79
2021/10/22 03:25:06;;;;;;;21.00;9.00;;;17.20;99.90;;;;;;5014656;28;20026;-77
2021/10/22 03:27:34;;;;;;;24.25;8.07;;;17.20;99.90;;;;;;5014709;28;20052;-74
2021/10/22 03:30:00;;;;;;;20.58;7.78;;;17.20;99.90;;;;;;5014101;28;20417;-75
2021/10/22 03:32:26;;;;;;;28.55;8.10;;;17.20;99.90;;;;;;5029873;28;20471;-75
2021/10/22 03:34:52;;;;;;;30.30;8.55;;;17.20;99.90;;;;;;5014814;28;20112;-78
2021/10/22 03:37:18;;;;;;;18.95;8.35;;;17.20;99.90;;;;;;5014330;28;20474;-75
2021/10/22 03:39:44;;;;;;;17.83;7.70;;;17.20;99.90;;;;;;5013801;28;20080;-77
2021/10/22 03:42:10;;;;;;;25.10;8.85;;;17.20;99.90;;;;;;5013084;28;20046;-76
2021/10/22 03:44:37;;;;;;;22.88;8.38;;;17.20;99.90;;;;;;5005872;28;20467;-79
2021/10/22 03:47:05;;;;;;;20.27;8.38;;;17.30;99.90;;;;;;5007554;28;20030;-74
2021/10/22 03:49:30;;;;;;;32.33;9.30;;;17.30;99.90;;;;;;5013355;28;20097;-77
2021/10/22 03:51:56;;;;;;;20.67;7.65;;;17.30;99.90;;;;;;5013023;28;20050;-78
2021/10/22 03:54:22;;;;;;;23.73;8.30;;;17.30;99.90;;;;;;5013242;28;20045;-78
2021/10/22 03:56:47;;;;;;;20.20;8.00;;;17.40;99.90;;;;;;5011895;28;20129;-75
2021/10/22 03:59:16;;;;;;;25.45;8.40;;;17.40;99.90;;;;;;5013556;28;20046;-78
2021/10/22 04:01:42;;;;;;;26.00;9.73;;;17.30;99.90;;;;;;5013390;28;20050;-77
2021/10/22 04:04:08;;;;;;;27.02;8.32;;;17.40;99.90;;;;;;5012848;28;20430;-77
2021/10/22 04:06:33;;;;;;;33.58;8.90;;;17.40;99.90;;;;;;5012860;28;20037;-78
2021/10/22 04:08:59;;;;;;;28.52;8.65;;;17.30;99.90;;;;;;5012968;28;20498;-77
2021/10/22 04:11:25;;;;;;;18.83;7.95;;;17.30;99.90;;;;;;5012913;28;20084;-79
2021/10/22 04:13:51;;;;;;;18.13;8.55;;;17.30;99.90;;;;;;5013527;28;20034;-79
2021/10/22 04:16:16;;;;;;;25.95;8.63;;;17.30;99.90;;;;;;5012768;28;22073;-76
2021/10/22 04:18:42;;;;;;;20.25;8.20;;;17.30;99.90;;;;;;5013044;28;20050;-78
2021/10/22 04:21:08;;;;;;;25.10;8.32;;;17.30;99.90;;;;;;5012320;28;20433;-78
2021/10/22 04:23:33;;;;;;;27.80;8.02;;;17.30;99.90;;;;;;5013145;28;20201;-78
2021/10/22 04:25:59;;;;;;;21.88;7.90;;;17.30;99.90;;;;;;5013555;28;20030;-77
2021/10/22 04:28:25;;;;;;;23.38;8.40;;;17.30;99.90;;;;;;5012608;28;20038;-77
2021/10/22 04:30:50;;;;;;;27.48;9.60;;;17.20;99.90;;;;;;5012398;28;20026;-74
2021/10/22 04:33:16;;;;;;;34.35;8.35;;;17.20;99.90;;;;;;5012705;28;20113;-79
2021/10/22 04:35:42;;;;;;;34.20;9.07;;;17.20;99.90;;;;;;5012727;28;20434;-79
2021/10/22 04:41:03;;;;;;;19.08;7.60;;;17.20;99.90;;;;;;4989759;28;20030;-75
2021/10/22 04:43:29;;;;;;;28.75;10.05;;;17.20;99.90;;;;;;5010475;28;20046;-79
2021/10/22 04:45:54;;;;;;;24.98;8.65;;;17.20;99.90;;;;;;5012363;28;20077;-78
2021/10/22 04:48:20;;;;;;;26.92;9.10;;;17.20;99.90;;;;;;5013154;28;20034;-73
2021/10/22 04:50:51;;;;;;;21.65;8.48;;;17.20;99.90;;;;;;5012357;28;20491;-77
2021/10/22 04:53:27;;;;;;;24.67;9.25;;;17.20;99.90;;;;;;5012637;28;20034;-76
2021/10/22 04:55:54;;;;;;;23.77;9.25;;;17.20;99.90;;;;;;5012513;28;20034;-78
2021/10/22 04:58:20;;;;;;;24.73;9.23;;;17.10;99.90;;;;;;5012580;28;20121;-77
2021/10/22 05:00:46;;;;;;;21.00;8.75;;;17.10;99.90;;;;;;5009536;28;20101;-77
2021/10/22 05:03:12;;;;;;;18.98;9.32;;;17.10;99.90;;;;;;5012490;28;20018;-76
2021/10/22 05:05:37;;;;;;;25.77;9.05;;;17.10;99.90;;;;;;5012426;28;20066;-78
2021/10/22 05:08:03;;;;;;;27.13;9.18;;;17.10;99.90;;;;;;5027366;28;20034;-75
2021/10/22 05:10:30;;;;;;;23.58;9.32;;;17.10;99.90;;;;;;5011655;28;20069;-76
2021/10/22 05:12:56;;;;;;;29.23;9.38;;;17.10;99.90;;;;;;5011701;28;20037;-76
2021/10/22 05:15:24;;;;;;;24.38;9.80;;;17.10;99.90;;;;;;5012404;28;20026;-73
2021/10/22 05:17:50;;;;;;;25.63;9.75;;;17.10;99.90;;;;;;5027282;28;20402;-74
2021/10/22 05:20:16;;;;;;;24.55;9.40;;;17.00;99.90;;;;;;5012349;28;20026;-78
2021/10/22 05:22:42;;;;;;;34.00;10.65;;;17.00;99.90;;;;;;5012091;28;20030;-75
2021/10/22 05:25:10;;;;;;;21.25;8.85;;;17.00;99.90;;;;;;5012086;28;20022;-74
2021/10/22 05:27:36;;;;;;;32.83;10.40;;;17.00;99.90;;;;;;5011901;28;20046;-77
2021/10/22 05:30:03;;;;;;;28.02;10.07;;;17.00;99.90;;;;;;5012333;28;20068;-77
2021/10/22 05:32:29;;;;;;;26.77;9.52;;;17.00;99.90;;;;;;5012310;28;20426;-77
2021/10/22 05:34:55;;;;;;;26.92;10.40;;;17.10;99.90;;;;;;5012264;28;20033;-75
2021/10/22 05:37:20;;;;;;;23.70;9.50;;;17.00;99.90;;;;;;5011151;28;20053;-81
2021/10/22 05:39:47;;;;;;;32.30;10.43;;;17.00;99.90;;;;;;5011635;28;20553;-81
2021/10/22 05:42:12;;;;;;;24.38;9.23;;;17.00;99.90;;;;;;5010995;28;20056;-75
2021/10/22 05:44:38;;;;;;;20.48;8.70;;;17.00;99.90;;;;;;5012527;28;20108;-83
2021/10/22 05:47:04;;;;;;;23.17;10.55;;;17.00;99.90;;;;;;5010570;28;20041;-83
2021/10/22 05:49:29;;;;;;;32.83;9.40;;;17.10;99.90;;;;;;5012444;28;20565;-83
2021/10/22 05:51:55;;;;;;;34.67;9.10;;;17.10;99.90;;;;;;5012087;28;20499;-83
2021/10/22 05:54:21;;;;;;;37.17;10.73;;;17.10;99.90;;;;;;5013473;28;20041;-83
2021/10/22 05:56:47;;;;;;;33.03;8.85;;;17.20;99.90;;;;;;5015447;28;20038;-83
2021/10/22 05:59:13;;;;;;;18.65;8.77;;;17.10;99.90;;;;;;5015618;28;20115;-82
2021/10/22 06:01:39;;;;;;;28.83;9.55;;;17.10;99.90;;;;;;5015477;28;20030;-82
2021/10/22 06:04:04;;;;;;;22.35;8.15;;;17.10;99.90;;;;;;5014386;28;20044;-82
2021/10/22 06:06:30;;;;;;;18.38;8.68;;;17.20;99.90;;;;;;5014686;28;20041;-75
2021/10/22 06:08:58;;;;;;;30.58;10.55;;;17.20;99.90;;;;;;5015162;28;20496;-74
2021/10/22 06:11:24;;;;;;;28.80;8.52;;;17.20;99.90;;;;;;5015154;28;20390;-77
2021/10/22 06:13:50;;;;;;;28.85;9.98;;;17.30;99.90;;;;;;5014049;28;20044;-74
2021/10/22 06:16:15;;;;;;;22.08;8.35;;;17.40;99.90;;;;;;5014477;28;20033;-80
2021/10/22 06:18:48;;;;;;;28.95;9.98;;;17.40;99.90;;;;;;5013178;28;20037;-81
2021/10/22 06:21:32;;;;;;;33.17;9.18;;;17.40;99.90;;;;;;5014349;28;20088;-83
2021/10/22 06:24:02;;;;;;;30.40;10.55;;;17.40;99.90;;;;;;5012099;28;20044;-83
2021/10/22 06:26:32;;;;;;;29.50;10.35;;;17.40;99.90;;;;;;5013718;28;20451;-81
2021/10/22 06:28:58;;;;;;;25.25;11.32;;;17.40;99.90;;;;;;5014841;28;20037;-78
2021/10/22 06:31:24;;;;;;;19.27;10.55;;;17.40;99.90;;;;;;5019865;28;20061;-79
2021/10/22 06:33:50;;;;;;;29.63;9.77;;;17.40;99.90;;;;;;5014620;28;20502;-82
2021/10/22 06:36:16;;;;;;;28.15;10.27;;;17.40;99.90;;;;;;5014244;28;20084;-81
2021/10/22 06:38:41;;;;;;;28.90;9.93;;;17.40;99.90;;;;;;5014499;28;20462;-77
2021/10/22 06:41:08;;;;;;;22.83;9.85;;;17.40;99.90;;;;;;5014659;28;20022;-82
2021/10/22 06:43:35;;;;;;;37.65;11.00;;;17.40;99.90;;;;;;5014555;28;20402;-82
2021/10/22 06:46:00;;;;;;;32.30;11.70;;;17.40;99.90;;;;;;5014552;28;20110;-82
2021/10/22 06:48:26;;;;;;;29.55;11.20;;;17.40;99.90;;;;;;5014692;28;20490;-77
2021/10/22 06:50:52;;;;;;;24.50;10.45;;;17.40;99.90;;;;;;5011523;28;20564;-79
2021/10/22 06:53:18;;;;;;;27.20;11.30;;;17.50;99.90;;;;;;5014198;28;20030;-80
2021/10/22 06:55:43;;;;;;;26.05;10.82;;;17.50;99.90;;;;;;5014131;28;20026;-83
2021/10/22 06:58:09;;;;;;;31.83;10.45;;;17.60;99.90;;;;;;5014279;28;20038;-81
2021/10/22 07:00:36;;;;;;;29.67;9.63;;;17.60;99.90;;;;;;5014232;28;20160;-81
2021/10/22 07:03:02;;;;;;;27.52;10.90;;;17.70;99.90;;;;;;5013240;28;20049;-76
2021/10/22 07:05:48;;;;;;;19.52;8.70;;;17.70;99.90;;;;;;5012974;28;20038;-82
2021/10/22 07:08:13;;;;;;;21.42;8.35;;;17.80;99.90;;;;;;5013690;28;20030;-81
2021/10/22 07:10:39;;;;;;;25.50;10.10;;;17.90;99.90;;;;;;5014214;28;20385;-73
2021/10/22 07:13:05;;;;;;;22.92;9.25;;;18.00;99.90;;;;;;5004131;28;20481;-81
2021/10/22 07:15:32;;;;;;;26.45;8.30;;;18.00;99.90;;;;;;5014072;28;20032;-80
2021/10/22 07:18:02;;;;;;;34.15;8.23;;;18.20;99.90;;;;;;5013236;28;20129;-82
2021/10/22 07:20:31;;;;;;;22.90;8.88;;;18.20;99.90;;;;;;5012824;28;20061;-81
2021/10/22 07:23:07;;;;;;;19.45;7.97;;;18.30;99.90;;;;;;5013544;28;20437;-81
2021/10/22 07:25:37;;;;;;;28.40;8.95;;;18.40;99.90;;;;;;5013812;28;20038;-78
2021/10/22 07:28:12;;;;;;;22.83;8.90;;;18.50;99.90;;;;;;5014074;28;20037;-73
2021/10/22 07:30:41;;;;;;;22.10;8.15;;;18.60;99.90;;;;;;5013475;28;20034;-83
2021/10/22 07:33:08;;;;;;;25.10;9.20;;;18.70;99.90;;;;;;5014081;28;20130;-73
2021/10/22 07:35:37;;;;;;;20.05;8.85;;;;;;;;;;5013579;28;20041;-75
2021/10/22 07:38:03;;;;;;;19.70;8.10;;;18.90;99.90;;;;;;5013878;28;20038;-79
2021/10/22 07:40:29;;;;;;;23.20;8.00;;;19.00;99.90;;;;;;5013430;28;20129;-76
2021/10/22 07:42:55;;;;;;;19.05;7.78;;;19.10;99.90;;;;;;5004648;28;20120;-74
2021/10/22 07:45:21;;;;;;;21.63;7.90;;;19.20;99.90;;;;;;5007284;28;20045;-78
2021/10/22 07:47:47;;;;;;;20.58;8.75;;;19.20;99.90;;;;;;5013254;28;20030;-82
2021/10/22 07:50:13;;;;;;;16.08;8.00;;;19.20;99.90;;;;;;5013305;28;20056;-78
2021/10/22 07:52:39;;;;;;;23.33;8.75;;;19.20;99.90;;;;;;5013291;28;20486;-74
2021/10/22 07:55:05;;;;;;;19.48;8.35;;;19.30;99.90;;;;;;5013277;28;20092;-73
2021/10/22 07:57:32;;;;;;;31.85;8.98;;;19.30;99.90;;;;;;5013103;28;20030;-82
2021/10/22 07:59:58;;;;;;;17.58;7.57;;;19.30;99.90;;;;;;5012842;28;20065;-80
2021/10/22 08:02:24;;;;;;;33.15;8.52;;;19.30;99.90;;;;;;5011776;28;20064;-78
2021/10/22 08:04:51;;;;;;;25.75;8.43;;;19.30;99.90;;;;;;5011550;28;20037;-82
2021/10/22 08:07:27;;;;;;;22.15;7.57;;;19.30;99.90;;;;;;5012442;28;20041;-83
2021/10/22 08:09:53;;;;;;;24.73;8.60;;;19.40;99.90;;;;;;5011407;28;20382;-74
2021/10/22 08:12:19;;;;;;;20.45;8.07;;;19.40;99.90;;;;;;5012105;28;20368;-73
2021/10/22 08:14:48;;;;;;;33.63;9.50;;;19.40;99.90;;;;;;5004563;28;20544;-73
2021/10/22 08:17:20;;;;;;;32.47;9.43;;;19.40;99.90;;;;;;5007122;28;20046;-81
2021/10/22 08:19:53;;;;;;;24.33;8.40;;;19.40;99.90;;;;;;5010527;28;20161;-73
2021/10/22 08:22:30;;;;;;;25.42;7.63;;;19.40;99.90;;;;;;5000114;28;20414;-72
2021/10/22 08:25:03;;;;;;;27.63;7.63;;;19.40;99.90;;;;;;5011724;28;20482;-75
2021/10/22 08:27:34;;;;;;;25.45;8.57;;;19.40;99.90;;;;;;5002900;28;20045;-78
2021/10/22 08:30:01;;;;;;;38.15;9.25;;;19.50;99.90;;;;;;5026080;28;20041;-74
2021/10/22 08:32:28;;;;;;;18.25;8.40;;;19.50;99.90;;;;;;4995861;28;20045;-81
2021/10/22 08:34:53;;;;;;;30.40;8.63;;;19.60;99.90;;;;;;5007993;28;20060;-75
2021/10/22 08:37:19;;;;;;;27.30;8.65;;;19.60;99.90;;;;;;5008624;28;20029;-78
2021/10/22 08:39:46;;;;;;;21.05;8.90;;;19.80;99.90;;;;;;5006380;28;20038;-73
2021/10/22 08:42:18;;;;;;;25.92;8.55;;;19.90;99.90;;;;;;5007086;28;20060;-73
2021/10/22 08:44:44;;;;;;;22.83;8.45;;;19.90;99.90;;;;;;5008632;28;20490;-73
2021/10/22 08:47:10;;;;;;;30.88;8.52;;;20.00;99.90;;;;;;5005764;28;20160;-78
2021/10/22 08:49:38;;;;;;;19.17;8.40;;;20.10;99.90;;;;;;5009620;28;20036;-80
2021/10/22 08:52:07;;;;;;;21.13;8.02;;;20.10;99.90;;;;;;5010329;28;20029;-82
2021/10/22 08:54:35;;;;;;;24.15;8.80;;;20.10;99.90;;;;;;5009400;28;20053;-82
2021/10/22 08:57:02;;;;;;;24.95;7.57;;;20.10;99.90;;;;;;5011464;28;20033;-79
2021/10/22 08:59:28;;;;;;;15.68;7.20;;;20.20;99.90;;;;;;5011528;28;20074;-83
2021/10/22 09:02:14;;;;;;;17.45;7.18;;;20.20;99.90;;;;;;5011233;28;20054;-75
2021/10/22 09:04:41;;;;;;;25.15;7.03;;;20.30;99.90;;;;;;5007863;28;20262;-80
2021/10/22 09:07:08;;;;;;;18.27;8.30;;;20.40;99.90;;;;;;5002914;28;20022;-79
2021/10/22 09:09:34;;;;;;;19.98;7.63;;;20.40;99.90;;;;;;5010707;28;20109;-83
2021/10/22 09:12:00;;;;;;;23.33;7.32;;;20.30;99.90;;;;;;5005726;28;20113;-80
2021/10/22 09:14:28;;;;;;;18.05;7.43;;;20.30;99.90;;;;;;5006559;28;20034;-82
2021/10/22 09:16:54;;;;;;;21.40;8.15;;;20.30;99.90;;;;;;5005132;28;20053;-81
2021/10/22 09:19:36;;;;;;;20.70;7.82;;;20.30;99.90;;;;;;5009721;28;20033;-82
2021/10/22 09:22:21;;;;;;;17.95;7.95;;;20.30;99.90;;;;;;5001069;28;20494;-78
2021/10/22 09:24:53;;;;;;;23.67;10.02;;;20.30;99.90;;;;;;5011724;28;20042;-82
2021/10/22 09:27:41;;;;;;;37.53;13.20;;;20.30;99.90;;;;;;5004625;28;20080;-84
2021/10/22 09:30:24;;;;;;;28.08;13.27;;;20.30;99.90;;;;;;5013754;28;20398;-79
2021/10/22 09:32:54;;;;;;;23.23;10.15;;;20.20;99.90;;;;;;5013642;28;20042;-77
2021/10/22 09:35:46;;;;;;;20.73;9.35;;;20.10;99.90;;;;;;5015655;28;20176;-81
2021/10/22 09:38:16;;;;;;;24.75;9.48;;;20.10;99.90;;;;;;5014842;28;20042;-78
2021/10/22 09:40:42;;;;;;;26.27;9.32;;;20.00;99.90;;;;;;5013079;28;20041;-75
2021/10/22 09:43:39;;;;;;;26.30;9.88;;;19.90;99.90;;;;;;5015289;28;20054;-82
2021/10/22 09:46:16;;;;;;;14.43;8.20;;;19.80;99.90;;;;;;5001568;28;20026;-82
2021/10/22 09:48:45;;;;;;;35.45;9.07;;;19.70;99.90;;;;;;5014416;28;20037;-82
2021/10/22 09:51:28;;;;;;;23.45;8.35;;;19.70;99.90;;;;;;5008090;28;20054;-82
2021/10/22 09:53:56;;;;;;;20.25;9.13;;;19.60;99.90;;;;;;5010150;28;20474;-81
2021/10/22 09:56:27;;;;;;;15.80;7.75;;;19.50;99.90;;;;;;5015305;28;20037;-81
2021/10/22 09:59:01;;;;;;;15.10;7.97;;;19.40;99.90;;;;;;5015322;28;20040;-81
2021/10/22 10:01:42;;;;;;;28.08;17.48;;;19.50;99.90;;;;;;5009133;28;20034;-80
2021/10/22 10:04:10;;;;;;;17.95;8.98;;;19.50;99.90;;;;;;5010263;28;20034;-82
2021/10/22 10:06:39;;;;;;;28.52;13.65;;;19.60;99.90;;;;;;5015825;28;20499;-81
2021/10/22 10:09:08;;;;;;;31.08;18.13;;;19.70;99.90;;;;;;5015561;28;20065;-81
2021/10/22 10:11:37;;;;;;;27.63;14.20;;;19.80;99.90;;;;;;5015434;28;20112;-81
2021/10/22 10:14:03;;;;;;;19.65;9.82;;;19.80;99.90;;;;;;5015799;28;20056;-81
2021/10/22 10:16:30;;;;;;;23.67;9.15;;;19.80;99.90;;;;;;5014132;28;20482;-80
2021/10/22 10:19:22;;;;;;;26.63;9.20;;;20.00;99.90;;;;;;5014970;28;20030;-81
2021/10/22 10:22:06;;;;;;;;;;;20.20;99.90;;;;;;5008688;28;20072;-80
2021/10/22 10:24:38;;;;;;;24.85;8.85;;;20.40;99.90;;;;;;5015226;28;19948;-81
2021/10/22 10:27:05;;;;;;;;;;;20.60;99.90;;;;;;5015599;28;20138;-81
2021/10/22 10:29:37;;;;;;;20.00;8.60;;;20.60;99.90;;;;;;5015231;28;19960;-81
2021/10/22 10:32:15;;;;;;;25.63;10.07;;;20.60;99.90;;;;;;5008441;28;20022;-80
2021/10/22 10:34:45;;;;;;;26.75;9.77;;;20.60;99.90;;;;;;5009375;28;20049;-80
2021/10/22 10:37:38;;;;;;;26.70;9.80;;;20.60;99.90;;;;;;5015018;28;20038;-80
2021/10/22 10:40:30;;;;;;;21.48;8.63;;;20.60;99.90;;;;;;5013246;28;20178;-79
2021/10/22 10:42:59;;;;;;;25.27;8.57;;;20.60;99.90;;;;;;5013148;28;20502;-82
2021/10/22 10:45:24;;;;;;;23.38;10.00;;;20.60;99.90;;;;;;5007368;28;20112;-79
2021/10/22 10:47:53;;;;;;;28.58;10.13;;;20.60;99.90;;;;;;5001954;28;20474;-80
2021/10/22 10:50:37;;;;;;;23.48;9.88;;;20.60;99.90;;;;;;5013250;28;20048;-80
2021/10/22 10:53:03;;;;;;;24.02;8.98;;;20.60;99.90;;;;;;5009620;28;20014;-81
2021/10/22 10:55:41;;;;;;;29.65;10.02;;;20.50;99.90;;;;;;5000053;28;20076;-79
2021/10/22 10:58:10;;;;;;;33.95;10.75;;;20.50;99.90;;;;;;5008828;28;20250;-80
2021/10/22 11:00:49;;;;;;;34.88;11.63;;;20.40;99.90;;;;;;5012806;28;20390;-78
2021/10/22 11:03:23;;;;;;;22.60;9.95;;;20.30;99.90;;;;;;5008408;28;20041;-78
2021/10/22 11:05:50;;;;;;;27.10;10.57;;;20.40;99.90;;;;;;5004259;28;20046;-79
2021/10/22 11:08:20;;;;;;;42.70;10.57;;;20.40;99.90;;;;;;4998318;28;20142;-80
2021/10/22 11:11:05;;;;;;;30.98;10.95;;;20.40;99.90;;;;;;5007998;28;20033;-79
2021/10/22 11:13:45;;;;;;;30.15;10.32;;;20.40;99.90;;;;;;5024495;28;20552;-80
2021/10/22 11:19:17;;;;;;;34.72;11.90;;;20.40;99.90;;;;;;5002249;28;20553;-77
2021/10/22 11:21:52;;;;;;;44.40;12.43;;;20.40;99.90;;;;;;5013015;28;20022;-82
2021/10/22 11:24:21;;;;;;;28.52;12.45;;;20.30;99.90;;;;;;5010651;28;20104;-76
2021/10/22 11:27:01;;;;;;;32.33;13.65;;;20.30;99.90;;;;;;5010010;28;20030;-81
2021/10/22 11:29:31;;;;;;;29.92;11.13;;;20.30;99.90;;;;;;5006836;28;20034;-77
2021/10/22 11:32:00;;;;;;;22.60;12.00;;;20.20;99.90;;;;;;5012723;28;20482;-79
2021/10/22 11:34:31;;;;;;;27.27;12.07;;;20.30;99.90;;;;;;5011882;28;20076;-75
2021/10/22 11:37:08;;;;;;;24.00;12.70;;;20.30;99.90;;;;;;5012960;28;20018;-81
2021/10/22 11:39:38;;;;;;;32.95;12.65;;;20.30;99.90;;;;;;5013904;28;20521;-76
2021/10/22 11:42:11;;;;;;;27.17;12.52;;;20.30;99.90;;;;;;5012871;28;20045;-80
2021/10/22 11:44:38;;;;;;;30.00;12.32;;;20.40;99.90;;;;;;5013872;28;20030;-82
2021/10/22 11:47:04;;;;;;;39.25;11.90;;;20.40;99.90;;;;;;5013758;28;20022;-75
2021/10/22 11:49:32;;;;;;;36.50;12.30;;;20.40;99.90;;;;;;5007575;28;20125;-75
2021/10/22 11:52:00;;;;;;;31.52;11.95;;;20.40;99.90;;;;;;5006316;28;20034;-77
2021/10/22 11:54:42;;;;;;;34.58;12.55;;;20.40;99.90;;;;;;5013633;28;20022;-76
2021/10/22 11:57:11;;;;;;;;;;;20.40;99.90;;;;;;5014247;28;20069;-80
2021/10/22 11:59:45;;;;;;;32.85;12.70;;;20.40;99.90;;;;;;5013778;28;19997;-82
2021/10/22 12:02:11;;;;;;;39.47;13.82;;;20.40;99.90;;;;;;5013618;28;20057;-79
2021/10/22 12:04:37;;;;;;;43.42;13.40;;;20.30;99.90;;;;;;5013597;28;20026;-86
2021/10/22 12:07:08;;;;;;;31.42;13.98;;;20.20;99.90;;;;;;5011739;28;20484;-81
2021/10/22 12:09:37;;;;;;;27.33;13.50;;;20.20;99.90;;;;;;5012204;28;20026;-78
2021/10/22 12:12:09;;;;;;;35.13;15.05;;;20.10;99.90;;;;;;5012412;28;20029;-82
2021/10/22 12:14:44;;;;;;;33.35;16.35;;;20.10;99.90;;;;;;5011948;28;20391;-81
2021/10/22 12:17:16;;;;;;;39.85;14.93;;;20.10;99.90;;;;;;5012071;28;20144;-80
2021/10/22 12:19:44;;;;;;;39.45;14.98;;;20.00;99.90;;;;;;5008704;28;20033;-80
2021/10/22 12:22:12;;;;;;;29.40;14.38;;;20.00;99.90;;;;;;5011392;28;20037;-75
2021/10/22 12:24:43;;;;;;;32.63;15.05;;;20.00;99.90;;;;;;5009149;28;20085;-81
2021/10/22 12:27:10;;;;;;;24.73;14.30;;;20.00;99.90;;;;;;5000758;28;20105;-79
2021/10/22 12:29:50;;;;;;;42.30;13.60;;;20.30;99.90;;;;;;5012505;28;20116;-81
2021/10/22 12:32:47;;;;;;;34.08;13.32;;;20.50;99.90;;;;;;5000585;28;20030;-76
2021/10/22 12:35:53;;;;;;;35.88;14.52;;;20.60;99.90;;;;;;4997668;28;20537;-81
2021/10/22 12:38:32;;;;;;;41.38;13.80;;;20.70;99.90;;;;;;4907813;29;20044;-81
2021/10/22 12:40:59;;;;;;;30.10;14.02;;;20.80;99.90;;;;;;4993171;28;20445;-80
2021/10/22 12:43:27;;;;;;;29.45;12.98;;;21.10;99.90;;;;;;5011845;28;20037;-81
2021/10/22 12:46:04;;;;;;;24.60;13.68;;;21.20;99.90;;;;;;5011199;28;20027;-76
2021/10/22 12:48:33;;;;;;;35.85;13.60;;;21.30;99.90;;;;;;5011336;28;20057;-75
2021/10/22 12:51:10;;;;;;;29.85;12.55;;;21.50;99.90;;;;;;5011613;28;20064;-75